createdAt,value
2022-09-20T00:01:11.492Z,101472.63
2022-09-20T00:03:40.591Z,101474.50
2022-09-20T00:06:08.694Z,101474.09
2022-09-20T00:08:35.982Z,101484.63
2022-09-20T00:11:07.446Z,101478.19
2022-09-20T00:13:35.438Z,101481.63
2022-09-20T00:16:04.975Z,101480.09
2022-09-20T00:18:32.113Z,101481.97
2022-09-20T00:20:58.891Z,101484.59
2022-09-20T00:23:25.728Z,101488.16
2022-09-20T00:25:57.182Z,101487.84
2022-09-20T00:28:24.173Z,101486.31
2022-09-20T00:30:52.097Z,101487.09
2022-09-20T00:33:19.825Z,101487.34
2022-09-20T00:35:47.255Z,101494.91
2022-09-20T00:38:14.777Z,101487.66
2022-09-20T00:40:43.188Z,101490.84
2022-09-20T00:43:17.290Z,101490.31
2022-09-20T00:45:49.723Z,101491.50
2022-09-20T00:48:25.217Z,101496.13
2022-09-20T00:50:55.513Z,101492.97
2022-09-20T00:53:22.420Z,101489.47
2022-09-20T00:55:51.659Z,101489.66
2022-09-20T00:58:19.461Z,101493.16
2022-09-20T01:00:46.800Z,101496.13
2022-09-20T01:03:15.595Z,101490.09
2022-09-20T01:05:44.630Z,101499.84
2022-09-20T01:08:12.607Z,101500.00
2022-09-20T01:10:39.422Z,101497.53
2022-09-20T01:13:06.438Z,101499.56
2022-09-20T01:15:35.110Z,101498.13
2022-09-20T01:18:02.843Z,101496.50
2022-09-20T01:20:35.452Z,101501.09
2022-09-20T01:23:21.071Z,101503.72
2022-09-20T01:25:54.180Z,101502.63
2022-09-20T01:28:21.630Z,101495.31
2022-09-20T01:31:01.098Z,101495.03
2022-09-20T01:33:31.334Z,101495.81
2022-09-20T01:36:01.463Z,101491.63
2022-09-20T01:38:28.211Z,101501.84
2022-09-20T01:41:08.106Z,101496.78
2022-09-20T01:43:35.205Z,101500.41
2022-09-20T01:46:09.913Z,101499.22
2022-09-20T01:48:40.193Z,101501.72
2022-09-20T01:51:09.962Z,101502.44
2022-09-20T01:53:46.138Z,101504.69
2022-09-20T01:56:15.894Z,101512.44
2022-09-20T01:58:42.694Z,101506.47
2022-09-20T02:01:09.612Z,101507.19
2022-09-20T02:03:50.924Z,101508.25
2022-09-20T02:06:34.067Z,101501.59
2022-09-20T02:09:03.802Z,101502.38
2022-09-20T02:11:41.216Z,101500.66
2022-09-20T02:14:10.992Z,101505.38
2022-09-20T02:16:43.904Z,101511.25
2022-09-20T02:19:11.250Z,101516.44
2022-09-20T02:21:39.229Z,101519.53
2022-09-20T02:24:15.069Z,101516.81
2022-09-20T02:27:02.703Z,101519.34
2022-09-20T02:29:47.537Z,101515.16
2022-09-20T02:32:17.715Z,101512.81
2022-09-20T02:35:06.874Z,101522.22
2022-09-20T02:37:56.911Z,101524.59
2022-09-20T02:40:32.652Z,101520.00
2022-09-20T02:42:59.627Z,101521.91
2022-09-20T02:45:30.388Z,101522.22
2022-09-20T02:48:00.909Z,101524.53
2022-09-20T02:50:50.922Z,101531.72
2022-09-20T02:53:17.867Z,101535.97
2022-09-20T02:55:50.378Z,101535.00
2022-09-20T02:58:36.018Z,101540.59
2022-09-20T03:01:12.426Z,101543.31
2022-09-20T03:03:57.708Z,101529.28
2022-09-20T03:06:30.281Z,101536.38
2022-09-20T03:09:02.648Z,101544.47
2022-09-20T03:11:29.593Z,101538.50
2022-09-20T03:14:11.863Z,101536.78
2022-09-20T03:16:53.951Z,101539.34
2022-09-20T03:19:38.971Z,101537.84
2022-09-20T03:22:14.035Z,101540.69
2022-09-20T03:25:06.519Z,101541.72
2022-09-20T03:27:42.831Z,101546.50
2022-09-20T03:30:28.939Z,101544.56
2022-09-20T03:33:01.918Z,101560.75
2022-09-20T03:35:38.594Z,101554.63
2022-09-20T03:38:24.131Z,101554.84
2022-09-20T03:40:50.910Z,101559.88
2022-09-20T03:43:27.550Z,101567.69
2022-09-20T03:46:04.369Z,101558.97
2022-09-20T03:48:47.072Z,101564.34
2022-09-20T03:51:20.023Z,101558.28
2022-09-20T03:53:53.011Z,101559.50
2022-09-20T03:56:19.961Z,101559.63
2022-09-20T03:58:52.869Z,101563.13
2022-09-20T04:01:32.828Z,101564.56
2022-09-20T04:04:31.847Z,101566.13
2022-09-20T04:07:01.605Z,101565.91
2022-09-20T04:09:38.179Z,101572.66
2022-09-20T04:12:14.889Z,101580.19
2022-09-20T04:14:45.859Z,101569.25
2022-09-20T04:17:18.803Z,101574.13
2022-09-20T04:19:49.102Z,101578.94
2022-09-20T04:22:16.335Z,101576.28
2022-09-20T04:24:56.662Z,101580.09
2022-09-20T04:27:42.367Z,101577.84
2022-09-20T04:30:09.276Z,101581.53
2022-09-20T04:32:46.832Z,101583.94
2022-09-20T04:35:41.270Z,101579.50
2022-09-20T04:38:10.930Z,101592.06
2022-09-20T04:40:37.721Z,101587.13
2022-09-20T04:43:23.479Z,101590.81
2022-09-20T04:45:51.582Z,101595.59
2022-09-20T04:48:30.418Z,101589.88
2022-09-20T04:51:16.051Z,101597.00
2022-09-20T04:54:11.234Z,101595.78
2022-09-20T04:57:00.937Z,101602.59
2022-09-20T04:59:30.855Z,101601.38
2022-09-20T05:02:16.432Z,101605.28
2022-09-20T05:05:02.302Z,101608.75
2022-09-20T05:07:41.330Z,101613.22
2022-09-20T05:10:26.998Z,101614.53
2022-09-20T05:12:57.356Z,101615.50
2022-09-20T05:15:35.386Z,101617.25
2022-09-20T05:18:21.560Z,101625.09
2022-09-20T05:21:01.623Z,101628.28
2022-09-20T05:23:51.823Z,101625.69
2022-09-20T05:26:27.836Z,101634.53
2022-09-20T05:28:54.882Z,101641.66
2022-09-20T05:31:38.330Z,101643.28
2022-09-20T05:34:05.895Z,101643.81
2022-09-20T05:36:44.752Z,101644.44
2022-09-20T05:39:23.735Z,101649.56
2022-09-20T05:42:04.727Z,101650.84
2022-09-20T05:44:46.374Z,101656.50
2022-09-20T05:47:15.907Z,101649.22
2022-09-20T05:49:53.657Z,101651.88
2022-09-20T05:52:44.224Z,101653.41
2022-09-20T05:55:20.131Z,101649.94
2022-09-20T05:57:50.027Z,101654.56
2022-09-20T06:00:19.813Z,101651.28
2022-09-20T06:02:55.481Z,101652.16
2022-09-20T06:05:42.756Z,101657.81
2022-09-20T06:08:28.265Z,101663.38
2022-09-20T06:11:13.726Z,101668.75
2022-09-20T06:14:03.925Z,101675.47
2022-09-20T06:16:30.984Z,101665.91
2022-09-20T06:19:04.974Z,101672.06
2022-09-20T06:22:04.491Z,101667.25
2022-09-20T06:24:38.095Z,101675.38
2022-09-20T06:27:08.867Z,101672.75
2022-09-20T06:29:38.825Z,101672.84
2022-09-20T06:32:05.653Z,101680.84
2022-09-20T06:34:32.674Z,101674.94
2022-09-20T06:37:37.021Z,101678.03
2022-09-20T06:40:35.299Z,101676.31
2022-09-20T06:43:04.112Z,101675.84
2022-09-20T06:45:32.192Z,101684.19
2022-09-20T06:48:02.094Z,101677.13
2022-09-20T06:50:29.040Z,101682.44
2022-09-20T06:52:56.072Z,101685.00
2022-09-20T06:55:29.255Z,101686.41
2022-09-20T06:57:56.493Z,101689.03
2022-09-20T07:00:23.517Z,101687.03
2022-09-20T07:02:50.358Z,101690.41
2022-09-20T07:05:17.825Z,101697.78
2022-09-20T07:07:45.036Z,101699.25
2022-09-20T07:10:12.124Z,101697.22
2022-09-20T07:12:39.289Z,101690.56
2022-09-20T07:15:07.327Z,101700.81
2022-09-20T07:17:34.203Z,101702.31
2022-09-20T07:20:01.284Z,101700.47
2022-09-20T07:22:28.316Z,101700.03
2022-09-20T07:24:55.313Z,101705.63
2022-09-20T07:27:22.455Z,101694.16
2022-09-20T07:29:50.306Z,101703.50
2022-09-20T07:32:17.983Z,101706.63
2022-09-20T07:34:44.919Z,101703.38
2022-09-20T07:37:11.954Z,101709.91
2022-09-20T07:39:38.748Z,101697.44
2022-09-20T07:42:08.475Z,101701.13
2022-09-20T07:44:35.450Z,101703.66
2022-09-20T07:47:02.468Z,101704.50
2022-09-20T07:49:32.483Z,101706.59
2022-09-20T07:51:59.462Z,101711.41
2022-09-20T07:54:27.665Z,101706.66
2022-09-20T07:56:54.576Z,101710.63
2022-09-20T07:59:21.605Z,101718.00
2022-09-20T08:01:48.362Z,101708.88
2022-09-20T08:04:15.513Z,101710.09
2022-09-20T08:06:43.562Z,101717.28
2022-09-20T08:09:12.043Z,101720.66
2022-09-20T08:11:40.171Z,101715.44
2022-09-20T08:14:09.116Z,101708.47
2022-09-20T08:16:40.666Z,101718.75
2022-09-20T08:19:07.983Z,101722.09
2022-09-20T08:21:35.678Z,101720.94
2022-09-20T08:24:04.092Z,101720.63
2022-09-20T08:26:35.907Z,101721.47
2022-09-20T08:29:04.243Z,101723.53
2022-09-20T08:31:34.375Z,101720.75
2022-09-20T08:34:05.036Z,101720.59
2022-09-20T08:36:36.402Z,101718.09
2022-09-20T08:41:56.865Z,101726.91
2022-09-20T08:44:35.853Z,101737.25
2022-09-20T08:47:09.975Z,101725.78
2022-09-20T08:49:37.687Z,101724.38
2022-09-20T08:52:10.277Z,101725.44
2022-09-20T08:54:37.406Z,101727.41
2022-09-20T08:57:07.205Z,101725.03
2022-09-20T08:59:34.662Z,101744.41
2022-09-20T09:02:01.600Z,101736.31
2022-09-20T09:04:35.140Z,101721.66
2022-09-20T09:07:02.842Z,101730.25
2022-09-20T09:09:29.916Z,101726.03
2022-09-20T09:11:58.526Z,101734.13
2022-09-20T09:14:48.261Z,101729.16
2022-09-20T09:17:27.350Z,101731.41
2022-09-20T09:19:56.829Z,101740.47
2022-09-20T09:22:23.670Z,101748.47
2022-09-20T09:25:09.279Z,101748.19
2022-09-20T09:27:49.167Z,101750.69
2022-09-20T09:30:20.531Z,101748.75
2022-09-20T09:32:47.876Z,101745.06
2022-09-20T09:35:26.222Z,101746.16
2022-09-20T09:37:58.012Z,101737.31
2022-09-20T09:40:26.301Z,101736.22
2022-09-20T09:42:55.562Z,101739.03
2022-09-20T09:45:28.153Z,101733.94
2022-09-20T09:47:55.831Z,101730.38
2022-09-20T09:50:33.641Z,101729.09
2022-09-20T09:53:10.926Z,101738.31
2022-09-20T09:55:43.995Z,101735.63
2022-09-20T09:58:21.248Z,101734.22
2022-09-20T10:00:48.603Z,101741.53
2022-09-20T10:03:25.255Z,101739.19
2022-09-20T10:06:30.315Z,101743.69
2022-09-20T10:09:23.070Z,101738.16
2022-09-20T10:11:49.887Z,101732.25
2022-09-20T10:14:19.643Z,101731.81
2022-09-20T10:17:04.931Z,101732.72
2022-09-20T10:19:32.191Z,101731.78
2022-09-20T10:22:17.303Z,101730.66
2022-09-20T10:24:51.670Z,101731.97
2022-09-20T10:27:32.154Z,101721.09
2022-09-20T10:30:08.431Z,101726.66
2022-09-20T10:32:41.028Z,101733.81
2022-09-20T10:35:26.488Z,101728.22
2022-09-20T10:38:00.974Z,101721.69
2022-09-20T10:40:53.833Z,101715.84
2022-09-20T10:43:43.358Z,101723.72
2022-09-20T10:49:04.060Z,101723.88
2022-09-20T10:51:41.149Z,101720.75
2022-09-20T10:54:23.371Z,101730.28
2022-09-20T10:56:52.841Z,101719.78
2022-09-20T10:59:55.191Z,101730.06
2022-09-20T11:02:35.372Z,101736.78
2022-09-20T11:05:16.414Z,101748.22
2022-09-20T11:07:52.664Z,101744.13
2022-09-20T11:10:29.859Z,101749.75
2022-09-20T11:13:06.027Z,101747.13
2022-09-20T11:15:56.208Z,101744.09
2022-09-20T11:18:32.885Z,101750.81
2022-09-20T11:21:07.779Z,101747.25
2022-09-20T11:23:34.733Z,101749.09
2022-09-20T11:26:13.019Z,101768.72
2022-09-20T11:28:46.350Z,101770.31
2022-09-20T11:31:22.305Z,101769.06
2022-09-20T11:33:53.360Z,101779.44
2022-09-20T11:36:25.064Z,101777.69
2022-09-20T11:38:56.465Z,101780.75
2022-09-20T11:41:26.323Z,101782.69
2022-09-20T11:43:56.047Z,101790.53
2022-09-20T11:46:31.193Z,101797.78
2022-09-20T11:49:04.231Z,101805.25
2022-09-20T11:51:33.840Z,101812.50
2022-09-20T11:54:14.676Z,101812.22
2022-09-20T11:56:49.614Z,101801.25
2022-09-20T11:59:29.062Z,101799.97
2022-09-20T12:01:59.575Z,101801.00
2022-09-20T12:04:33.952Z,101800.91
2022-09-20T12:07:10.512Z,101796.38
2022-09-20T12:09:40.252Z,101808.19
2022-09-20T12:12:23.194Z,101814.22
2022-09-20T12:14:54.494Z,101820.13
2022-09-20T12:17:40.077Z,101827.59
2022-09-20T12:20:25.816Z,101838.53
2022-09-20T12:22:52.634Z,101847.91
2022-09-20T12:25:36.541Z,101855.44
2022-09-20T12:28:04.049Z,101857.84
2022-09-20T12:30:33.953Z,101866.41
2022-09-20T12:33:01.476Z,101865.22
2022-09-20T12:35:37.299Z,101867.84
2022-09-20T12:38:22.773Z,101870.72
2022-09-20T12:41:13.123Z,101871.59
2022-09-20T12:43:52.363Z,101866.31
2022-09-20T12:46:24.851Z,101865.81
2022-09-20T12:48:52.295Z,101861.94
2022-09-20T12:51:48.495Z,101871.88
2022-09-20T12:54:16.744Z,101858.84
2022-09-20T12:56:46.284Z,101856.97
2022-09-20T12:59:21.531Z,101864.69
2022-09-20T13:01:48.762Z,101866.28
2022-09-20T13:04:34.459Z,101860.94
2022-09-20T13:07:20.210Z,101864.72
2022-09-20T13:09:47.924Z,101862.69
2022-09-20T13:12:16.231Z,101866.03
2022-09-20T13:14:44.594Z,101863.31
2022-09-20T13:17:14.414Z,101869.16
2022-09-20T13:19:43.563Z,101862.47
2022-09-20T13:22:13.447Z,101863.91
2022-09-20T13:25:00.811Z,101867.28
2022-09-20T13:27:30.930Z,101863.69
2022-09-20T13:30:08.935Z,101858.19
2022-09-20T13:32:36.163Z,101865.56
2022-09-20T13:35:15.558Z,101866.97
2022-09-20T13:37:51.713Z,101865.56
2022-09-20T13:40:23.431Z,101860.97
2022-09-20T13:42:52.393Z,101854.00
2022-09-20T13:45:20.728Z,101850.91
2022-09-20T13:47:52.013Z,101851.38
2022-09-20T13:50:24.024Z,101847.75
2022-09-20T13:52:52.901Z,101844.38
2022-09-20T13:55:28.034Z,101855.16
2022-09-20T13:57:56.781Z,101850.69
2022-09-20T14:00:25.277Z,101855.13
2022-09-20T14:02:55.524Z,101848.78
2022-09-20T14:05:24.886Z,101867.50
2022-09-20T14:07:52.490Z,101854.50
2022-09-20T14:10:37.120Z,101863.59
2022-09-20T14:13:08.377Z,101867.69
2022-09-20T14:15:39.127Z,101868.81
2022-09-20T14:18:07.318Z,101868.19
2022-09-20T14:20:34.454Z,101868.97
2022-09-20T14:23:01.599Z,101877.66
2022-09-20T14:25:28.827Z,101891.06
2022-09-20T14:28:17.596Z,101894.41
2022-09-20T14:30:45.576Z,101908.81
2022-09-20T14:33:18.375Z,101907.63
2022-09-20T14:35:49.639Z,101918.53
2022-09-20T14:38:18.494Z,101921.91
2022-09-20T14:40:49.095Z,101920.94
2022-09-20T14:43:29.307Z,101924.75
2022-09-20T14:45:57.723Z,101927.13
2022-09-20T14:48:24.755Z,101930.25
2022-09-20T14:51:12.561Z,101927.69
2022-09-20T14:53:40.052Z,101933.72
2022-09-20T14:56:06.893Z,101929.63
2022-09-20T14:58:54.038Z,101930.88
2022-09-20T15:01:21.019Z,101927.06
2022-09-20T15:03:47.815Z,101936.31
2022-09-20T15:06:15.264Z,101938.94
2022-09-20T15:08:46.370Z,101939.88
2022-09-20T15:11:17.070Z,101941.25
2022-09-20T15:13:44.393Z,101936.53
2022-09-20T15:16:12.676Z,101942.25
2022-09-20T15:18:40.732Z,101946.97
2022-09-20T15:21:08.018Z,101942.25
2022-09-20T15:23:35.690Z,101939.66
2022-09-20T15:26:03.267Z,101933.41
2022-09-20T15:28:32.703Z,101947.81
2022-09-20T15:30:59.623Z,101946.47
2022-09-20T15:33:29.335Z,101954.22
2022-09-20T15:35:56.686Z,101956.78
2022-09-20T15:38:26.859Z,101964.81
2022-09-20T15:40:53.756Z,101958.56
2022-09-20T15:43:24.121Z,101957.22
2022-09-20T15:45:52.202Z,101953.78
2022-09-20T15:48:21.959Z,101959.13
2022-09-20T15:51:02.004Z,101960.41
2022-09-20T15:53:33.633Z,101956.91
2022-09-20T15:56:01.878Z,101948.19
2022-09-20T15:58:32.370Z,101950.50
2022-09-20T16:01:05.367Z,101947.66
2022-09-20T16:03:32.865Z,101946.00
2022-09-20T16:06:04.843Z,101946.69
2022-09-20T16:08:39.065Z,101949.28
2022-09-20T16:11:07.214Z,101945.72
2022-09-20T16:13:36.307Z,101952.03
2022-09-20T16:16:03.677Z,101953.91
2022-09-20T16:18:49.425Z,101951.50
2022-09-20T16:21:17.992Z,101962.25
2022-09-20T16:23:49.792Z,101960.69
2022-09-20T16:26:16.840Z,101959.50
2022-09-20T16:28:47.219Z,101967.69
2022-09-20T16:31:33.254Z,101967.53
2022-09-20T16:34:00.987Z,101969.41
2022-09-20T16:36:28.010Z,101971.31
2022-09-20T16:38:58.583Z,101972.94
2022-09-20T16:41:26.624Z,101979.34
2022-09-20T16:43:53.827Z,101982.72
2022-09-20T16:46:21.614Z,101983.84
2022-09-20T16:48:49.923Z,101984.81
2022-09-20T16:51:16.951Z,101982.34
2022-09-20T16:53:43.719Z,101979.38
2022-09-20T16:56:19.206Z,101990.78
2022-09-20T16:58:47.171Z,101988.19
2022-09-20T17:01:14.168Z,101997.00
2022-09-20T17:03:41.105Z,101997.31
2022-09-20T17:06:08.894Z,102005.59
2022-09-20T17:08:40.047Z,102006.44
2022-09-20T17:11:14.222Z,102010.88
2022-09-20T17:13:42.686Z,102011.31
2022-09-20T17:16:10.935Z,102013.91
2022-09-20T17:18:41.999Z,102015.19
2022-09-20T17:21:16.606Z,102029.75
2022-09-20T17:23:47.553Z,102029.94
2022-09-20T17:26:19.509Z,102027.31
2022-09-20T17:28:47.472Z,102031.84
2022-09-20T17:31:15.869Z,102029.50
2022-09-20T17:33:43.102Z,102040.81
2022-09-20T17:36:13.108Z,102049.13
2022-09-20T17:38:39.922Z,102053.19
2022-09-20T17:41:11.474Z,102054.16
2022-09-20T17:43:38.318Z,102066.41
2022-09-20T17:46:12.843Z,102066.47
2022-09-20T17:48:40.786Z,102063.00
2022-09-20T17:51:12.344Z,102065.91
2022-09-20T17:53:39.570Z,102071.16
2022-09-20T17:56:06.587Z,102068.38
2022-09-20T17:58:37.393Z,102070.38
2022-09-20T18:01:08.679Z,102079.00
2022-09-20T18:03:39.308Z,102080.00
2022-09-20T18:06:22.734Z,102076.72
2022-09-20T18:08:50.954Z,102077.44
2022-09-20T18:11:18.639Z,102080.81
2022-09-20T18:13:45.471Z,102084.84
2022-09-20T18:16:13.672Z,102085.88
2022-09-20T18:18:41.292Z,102088.78
2022-09-20T18:21:10.946Z,102090.56
2022-09-20T18:23:38.041Z,102084.09
2022-09-20T18:26:23.408Z,102084.09
2022-09-20T18:28:55.024Z,102098.47
2022-09-20T18:31:21.991Z,102097.78
2022-09-20T18:33:52.178Z,102103.09
2022-09-20T18:36:19.589Z,102102.47
2022-09-20T18:38:46.517Z,102104.34
2022-09-20T18:41:14.548Z,102103.78
2022-09-20T18:43:44.463Z,102110.00
2022-09-20T18:46:12.303Z,102110.66
2022-09-20T18:48:40.320Z,102111.63
2022-09-20T18:51:08.314Z,102112.38
2022-09-20T18:53:36.166Z,102117.78
2022-09-20T18:56:10.314Z,102119.50
2022-09-20T18:58:39.792Z,102124.44
2022-09-20T19:01:26.979Z,102124.38
2022-09-20T19:04:09.291Z,102122.50
2022-09-20T19:06:43.367Z,102127.25
2022-09-20T19:09:20.432Z,102123.66
2022-09-20T19:11:56.030Z,102133.94
2022-09-20T19:14:28.671Z,102138.50
2022-09-20T19:17:00.143Z,102144.88
2022-09-20T19:19:36.611Z,102138.94
2022-09-20T19:22:03.373Z,102150.34
2022-09-20T19:24:49.458Z,102141.00
2022-09-20T19:27:16.303Z,102142.13
2022-09-20T19:29:43.407Z,102150.66
2022-09-20T19:32:13.421Z,102144.94
2022-09-20T19:34:43.179Z,102151.16
2022-09-20T19:37:19.205Z,102151.53
2022-09-20T19:39:57.155Z,102157.59
2022-09-20T19:42:39.466Z,102166.88
2022-09-20T19:45:14.322Z,102164.84
2022-09-20T19:47:44.446Z,102170.19
2022-09-20T19:50:29.614Z,102170.94
2022-09-20T19:52:56.677Z,102177.16
2022-09-20T19:55:23.717Z,102185.09
2022-09-20T19:57:51.152Z,102186.94
2022-09-20T20:00:19.484Z,102185.09
2022-09-20T20:02:46.436Z,102183.50
2022-09-20T20:05:14.224Z,102186.75
2022-09-20T20:08:00.066Z,102194.56
2022-09-20T20:10:31.547Z,102191.03
2022-09-20T20:13:43.391Z,102195.44
2022-09-20T20:16:15.401Z,102193.56
2022-09-20T20:19:01.563Z,102195.44
2022-09-20T20:21:37.262Z,102199.38
2022-09-20T20:24:09.395Z,102208.25
2022-09-20T20:26:36.156Z,102206.53
2022-09-20T20:29:02.941Z,102206.03
2022-09-20T20:31:30.429Z,102206.00
2022-09-20T20:33:57.468Z,102206.72
2022-09-20T20:36:24.238Z,102212.22
2022-09-20T20:38:53.145Z,102212.09
2022-09-20T20:41:21.088Z,102212.25
2022-09-20T20:43:48.384Z,102219.13
2022-09-20T20:46:18.123Z,102217.53
2022-09-20T20:48:45.947Z,102221.16
2022-09-20T20:51:13.559Z,102221.06
2022-09-20T20:53:43.158Z,102219.25
2022-09-20T20:56:12.238Z,102219.31
2022-09-20T20:58:40.949Z,102220.44
2022-09-20T21:01:07.950Z,102219.75
2022-09-20T21:03:35.418Z,102224.09
2022-09-20T21:06:04.636Z,102220.91
2022-09-20T21:08:32.431Z,102228.13
2022-09-20T21:11:03.531Z,102231.34
2022-09-20T21:13:30.893Z,102218.47
2022-09-20T21:16:04.923Z,102224.09
2022-09-20T21:18:32.462Z,102223.75
2022-09-20T21:20:59.945Z,102225.00
2022-09-20T21:23:26.939Z,102232.22
2022-09-20T21:26:00.668Z,102236.53
2022-09-20T21:28:27.645Z,102235.31
2022-09-20T21:31:00.485Z,102231.28
2022-09-20T21:33:34.830Z,102244.88
2022-09-20T21:36:01.755Z,102240.91
2022-09-20T21:38:29.153Z,102251.38
2022-09-20T21:41:06.232Z,102258.75
2022-09-20T21:43:33.006Z,102250.16
2022-09-20T21:46:00.039Z,102253.53
2022-09-20T21:48:29.075Z,102252.91
2022-09-20T21:51:02.747Z,102254.78
2022-09-20T21:53:29.946Z,102254.84
2022-09-20T21:55:58.418Z,102259.59
2022-09-20T21:58:25.461Z,102262.91
2022-09-20T22:00:56.414Z,102260.16
2022-09-20T22:03:23.212Z,102266.13
2022-09-20T22:05:50.093Z,102262.63
2022-09-20T22:08:17.089Z,102261.88
2022-09-20T22:10:43.814Z,102260.97
2022-09-20T22:13:10.738Z,102266.13
2022-09-20T22:15:37.957Z,102255.75
2022-09-20T22:18:06.013Z,102264.59
2022-09-20T22:20:32.760Z,102265.44
2022-09-20T22:23:00.020Z,102267.41
2022-09-20T22:25:26.771Z,102267.78
2022-09-20T22:27:53.529Z,102266.59
2022-09-20T22:30:20.516Z,102271.13
2022-09-20T22:32:47.301Z,102268.19
2022-09-20T22:35:14.167Z,102263.16
2022-09-20T22:37:41.236Z,102263.78
2022-09-20T22:40:08.142Z,102267.34
2022-09-20T22:42:34.957Z,102268.06
2022-09-20T22:45:01.941Z,102268.25
2022-09-20T22:47:28.733Z,102271.09
2022-09-20T22:49:55.483Z,102274.09
2022-09-20T22:52:22.486Z,102266.84
2022-09-20T22:54:49.217Z,102270.59
2022-09-20T22:57:16.032Z,102276.50
2022-09-20T22:59:43.022Z,102273.13
2022-09-20T23:02:09.794Z,102272.09
2022-09-20T23:04:36.599Z,102280.09
2022-09-20T23:07:03.599Z,102281.94
2022-09-20T23:09:30.587Z,102286.91
2022-09-20T23:11:57.356Z,102284.72
2022-09-20T23:14:24.477Z,102286.69
2022-09-20T23:16:51.409Z,102277.78
2022-09-20T23:19:18.450Z,102283.63
2022-09-20T23:21:45.762Z,102283.72
2022-09-20T23:24:13.651Z,102276.56
2022-09-20T23:26:40.894Z,102285.06
2022-09-20T23:29:09.001Z,102280.41
2022-09-20T23:31:37.107Z,102293.56
2022-09-20T23:34:04.873Z,102298.69
2022-09-20T23:36:33.165Z,102297.16
2022-09-20T23:39:00.274Z,102291.38
2022-09-20T23:41:27.939Z,102303.28
2022-09-20T23:43:55.393Z,102307.41
2022-09-20T23:46:23.386Z,102301.47
2022-09-20T23:48:50.768Z,102296.69
2022-09-20T23:51:19.162Z,102298.72
2022-09-20T23:53:46.122Z,102292.06
2022-09-20T23:56:13.694Z,102297.81
2022-09-20T23:58:42.113Z,102297.78
